Alturas Municipal, CA

10:51 AM PST on November 23, 2014 (GMT -0800)
Mount Shasta | Change Station
CLOSE
Current Station
Airport
Location: Mount Shasta,
Elevation: 3533 ft
Nearby Weather Stations

Elev 3533 ft 41.32 °N, 122.32 °W | Updated 55 minutes ago

Mostly Cloudy
Mostly Cloudy
37 °F
Feels Like 37 °F
N
0
Wind Variable Wind from North

Today
High -- | Low -- °F
--% Chance of Precip.
Yesterday
High -- | Low -- °F
Precip. -- in
7:00 AM 4:36 PM
New Moon, 2% visible
Pressure 30.47 in
Visibility 9.0 miles
Clouds Clear
Dew Point 32 °F
Humidity 82%
Rainfall 0.00 in
Snow Depth Not available.
UV 2 out of 12
Pollen 2.60 out of 12
Air Quality Not available.
Flu Activity Not available.
METAR KMHS 231756Z AUTO 00000KT 9SM CLR 03/00 A3039 RMK AO2 SLP318 I6000 T00280000 10028 21022 50011

More Conditions Fewer Conditions

Pressure 30.47 in
Visibility 9.0 miles
Clouds Clear
Dew Point 32 °F
Humidity 82%
Rainfall 0.00 in
Snow Depth Not available.
UV 2 out of 12
Pollen 2.60 out of 12
Air Quality Not available.
Flu Activity Not available.
METAR KMHS 231756Z AUTO 00000KT 9SM CLR 03/00 A3039 RMK AO2 SLP318 I6000 T00280000 10028 21022 50011

More Conditions Fewer Conditions

10-Day Weather Forecast

Almanac

Astronomy

Nov. 23, 2014 Rise Set
Actual Time
Civil Twilight
Nautical Twilight
Astronomical Twilight
Moon
Length of Visible Light
Length of Day
Tomorrow will be .
, % of the Moon is Illuminated

Today's Extremes

State Highs State Lows

Community

WunderPhotos

Upload Photos

1,773,127 photos uploaded!

WunderBlogs® & News

Nearby

Air Quality

  Air Quality AQ Index Pollutant
Not available.

Snow Depth

Station Depth Elevation

Earthquake Activity

City Distance Mag. Time & Date
Minimum magnitude displayed is 2.5.

Coastal Water Temperatures

Place Temperature

Nearby Weather Stations